sensor_id;sensor_type;location;lat;lon;timestamp;temperature;humidity
23301;DHT22;11819;51.394;12.340;2022-12-18T00:01:57;-3.40;82.00
23301;DHT22;11819;51.394;12.340;2022-12-18T00:04:25;-3.50;81.40
23301;DHT22;11819;51.394;12.340;2022-12-18T00:06:52;-3.60;81.30
23301;DHT22;11819;51.394;12.340;2022-12-18T00:09:18;-3.70;81.20
23301;DHT22;11819;51.394;12.340;2022-12-18T00:11:44;-3.70;81.50
23301;DHT22;11819;51.394;12.340;2022-12-18T00:14:12;-3.60;81.60
23301;DHT22;11819;51.394;12.340;2022-12-18T00:16:38;-3.60;81.40
23301;DHT22;11819;51.394;12.340;2022-12-18T00:19:04;-3.70;80.80
23301;DHT22;11819;51.394;12.340;2022-12-18T00:21:31;-3.70;80.50
23301;DHT22;11819;51.394;12.340;2022-12-18T00:23:58;-3.80;80.30
23301;DHT22;11819;51.394;12.340;2022-12-18T00:26:29;-3.80;80.00
23301;DHT22;11819;51.394;12.340;2022-12-18T00:29:08;-3.90;79.90
23301;DHT22;11819;51.394;12.340;2022-12-18T00:31:35;-3.90;80.10
23301;DHT22;11819;51.394;12.340;2022-12-18T00:34:03;-3.90;80.20
23301;DHT22;11819;51.394;12.340;2022-12-18T00:36:31;-3.90;80.10
23301;DHT22;11819;51.394;12.340;2022-12-18T00:38:58;-4.00;79.90
23301;DHT22;11819;51.394;12.340;2022-12-18T00:41:24;-3.90;80.50
23301;DHT22;11819;51.394;12.340;2022-12-18T00:44:11;-3.90;80.80
23301;DHT22;11819;51.394;12.340;2022-12-18T00:46:37;-4.00;80.60
23301;DHT22;11819;51.394;12.340;2022-12-18T00:49:03;-4.00;80.20
23301;DHT22;11819;51.394;12.340;2022-12-18T00:51:28;-4.00;79.90
23301;DHT22;11819;51.394;12.340;2022-12-18T00:53:54;-4.10;79.50
23301;DHT22;11819;51.394;12.340;2022-12-18T00:56:20;-4.10;79.30
23301;DHT22;11819;51.394;12.340;2022-12-18T00:58:45;-4.20;79.10
23301;DHT22;11819;51.394;12.340;2022-12-18T01:01:11;-4.20;79.10
23301;DHT22;11819;51.394;12.340;2022-12-18T01:03:36;-4.20;79.20
23301;DHT22;11819;51.394;12.340;2022-12-18T01:06:07;-4.20;79.00
23301;DHT22;11819;51.394;12.340;2022-12-18T01:08:33;-4.30;78.80
23301;DHT22;11819;51.394;12.340;2022-12-18T01:10:59;-4.30;78.80
23301;DHT22;11819;51.394;12.340;2022-12-18T01:13:24;-4.30;78.90
23301;DHT22;11819;51.394;12.340;2022-12-18T01:15:50;-4.40;78.90
23301;DHT22;11819;51.394;12.340;2022-12-18T01:18:16;-4.40;79.00
23301;DHT22;11819;51.394;12.340;2022-12-18T01:20:42;-4.30;79.20
23301;DHT22;11819;51.394;12.340;2022-12-18T01:23:07;-4.30;79.30
23301;DHT22;11819;51.394;12.340;2022-12-18T01:25:35;-4.30;79.10
23301;DHT22;11819;51.394;12.340;2022-12-18T01:28:00;-4.30;79.00
23301;DHT22;11819;51.394;12.340;2022-12-18T01:30:27;-4.30;78.80
23301;DHT22;11819;51.394;12.340;2022-12-18T01:32:53;-4.40;78.70
23301;DHT22;11819;51.394;12.340;2022-12-18T01:35:19;-4.30;78.90
23301;DHT22;11819;51.394;12.340;2022-12-18T01:37:45;-4.30;78.80
23301;DHT22;11819;51.394;12.340;2022-12-18T01:40:11;-4.40;78.50
23301;DHT22;11819;51.394;12.340;2022-12-18T01:42:37;-4.40;79.00
23301;DHT22;11819;51.394;12.340;2022-12-18T01:47:50;-4.50;78.40
23301;DHT22;11819;51.394;12.340;2022-12-18T01:50:27;-4.50;78.80
23301;DHT22;11819;51.394;12.340;2022-12-18T01:53:04;-4.50;79.20
23301;DHT22;11819;51.394;12.340;2022-12-18T01:55:35;-4.50;79.00
23301;DHT22;11819;51.394;12.340;2022-12-18T01:58:03;-4.50;78.40
23301;DHT22;11819;51.394;12.340;2022-12-18T02:00:29;-4.50;78.40
23301;DHT22;11819;51.394;12.340;2022-12-18T02:02:55;-4.50;79.00
23301;DHT22;11819;51.394;12.340;2022-12-18T02:05:46;-4.40;79.50
23301;DHT22;11819;51.394;12.340;2022-12-18T02:14:28;-4.40;78.40
23301;DHT22;11819;51.394;12.340;2022-12-18T02:17:01;-4.40;78.00
23301;DHT22;11819;51.394;12.340;2022-12-18T02:19:47;-4.50;77.80
23301;DHT22;11819;51.394;12.340;2022-12-18T02:25:58;-4.60;78.30
23301;DHT22;11819;51.394;12.340;2022-12-18T02:28:31;-4.60;78.40
23301;DHT22;11819;51.394;12.340;2022-12-18T02:31:06;-4.60;78.70
23301;DHT22;11819;51.394;12.340;2022-12-18T02:33:35;-4.60;78.60
23301;DHT22;11819;51.394;12.340;2022-12-18T02:36:01;-4.60;78.50
23301;DHT22;11819;51.394;12.340;2022-12-18T02:38:30;-4.60;78.40
23301;DHT22;11819;51.394;12.340;2022-12-18T02:41:04;-4.60;78.30
23301;DHT22;11819;51.394;12.340;2022-12-18T02:43:30;-4.60;78.30
23301;DHT22;11819;51.394;12.340;2022-12-18T02:45:59;-4.60;78.30
23301;DHT22;11819;51.394;12.340;2022-12-18T02:48:34;-4.60;78.10
23301;DHT22;11819;51.394;12.340;2022-12-18T02:51:08;-4.60;77.90
23301;DHT22;11819;51.394;12.340;2022-12-18T02:54:05;-4.60;77.70
23301;DHT22;11819;51.394;12.340;2022-12-18T02:56:49;-4.60;77.60
23301;DHT22;11819;51.394;12.340;2022-12-18T02:59:21;-4.70;77.40
23301;DHT22;11819;51.394;12.340;2022-12-18T03:02:15;-4.70;77.20
23301;DHT22;11819;51.394;12.340;2022-12-18T03:04:50;-4.80;77.30
23301;DHT22;11819;51.394;12.340;2022-12-18T03:07:26;-4.80;77.80
23301;DHT22;11819;51.394;12.340;2022-12-18T03:09:56;-4.80;77.90
23301;DHT22;11819;51.394;12.340;2022-12-18T03:12:28;-4.80;77.80
23301;DHT22;11819;51.394;12.340;2022-12-18T03:15:20;-4.80;77.90
23301;DHT22;11819;51.394;12.340;2022-12-18T03:17:57;-4.70;78.00
23301;DHT22;11819;51.394;12.340;2022-12-18T03:20:29;-4.70;77.90
23301;DHT22;11819;51.394;12.340;2022-12-18T03:23:21;-4.80;77.90
23301;DHT22;11819;51.394;12.340;2022-12-18T03:25:51;-4.80;77.80
23301;DHT22;11819;51.394;12.340;2022-12-18T03:28:21;-4.80;77.50
23301;DHT22;11819;51.394;12.340;2022-12-18T03:30:57;-4.80;77.50
23301;DHT22;11819;51.394;12.340;2022-12-18T03:33:36;-4.80;77.80
23301;DHT22;11819;51.394;12.340;2022-12-18T03:36:06;-4.80;78.00
23301;DHT22;11819;51.394;12.340;2022-12-18T03:38:32;-4.80;78.00
23301;DHT22;11819;51.394;12.340;2022-12-18T03:41:11;-4.80;77.80
23301;DHT22;11819;51.394;12.340;2022-12-18T03:50:03;-4.90;77.20
23301;DHT22;11819;51.394;12.340;2022-12-18T03:52:42;-4.90;77.70
23301;DHT22;11819;51.394;12.340;2022-12-18T03:55:11;-4.90;77.90
23301;DHT22;11819;51.394;12.340;2022-12-18T03:57:39;-4.80;78.20
23301;DHT22;11819;51.394;12.340;2022-12-18T04:00:12;-4.80;78.10
23301;DHT22;11819;51.394;12.340;2022-12-18T04:02:54;-4.80;78.10
23301;DHT22;11819;51.394;12.340;2022-12-18T04:05:28;-4.80;77.60
23301;DHT22;11819;51.394;12.340;2022-12-18T04:07:56;-4.90;77.10
23301;DHT22;11819;51.394;12.340;2022-12-18T04:10:22;-4.90;77.40
23301;DHT22;11819;51.394;12.340;2022-12-18T04:12:48;-4.90;77.80
23301;DHT22;11819;51.394;12.340;2022-12-18T04:15:14;-4.90;78.10
23301;DHT22;11819;51.394;12.340;2022-12-18T04:17:48;-4.90;78.00
23301;DHT22;11819;51.394;12.340;2022-12-18T04:20:16;-4.90;77.60
23301;DHT22;11819;51.394;12.340;2022-12-18T04:22:43;-5.00;77.20
23301;DHT22;11819;51.394;12.340;2022-12-18T04:25:11;-5.00;77.10
23301;DHT22;11819;51.394;12.340;2022-12-18T04:27:42;-5.00;77.20
23301;DHT22;11819;51.394;12.340;2022-12-18T04:30:09;-5.10;77.30
23301;DHT22;11819;51.394;12.340;2022-12-18T04:32:35;-5.10;77.30
23301;DHT22;11819;51.394;12.340;2022-12-18T04:35:02;-5.10;77.20
23301;DHT22;11819;51.394;12.340;2022-12-18T04:37:30;-5.10;77.20
23301;DHT22;11819;51.394;12.340;2022-12-18T04:39:56;-5.10;77.10
23301;DHT22;11819;51.394;12.340;2022-12-18T04:42:30;-5.20;77.00
23301;DHT22;11819;51.394;12.340;2022-12-18T04:44:55;-5.20;77.20
23301;DHT22;11819;51.394;12.340;2022-12-18T04:47:21;-5.20;77.40
23301;DHT22;11819;51.394;12.340;2022-12-18T04:49:46;-5.20;77.50
23301;DHT22;11819;51.394;12.340;2022-12-18T04:52:12;-5.20;77.30
23301;DHT22;11819;51.394;12.340;2022-12-18T04:54:38;-5.20;77.10
23301;DHT22;11819;51.394;12.340;2022-12-18T04:57:04;-5.20;76.90
23301;DHT22;11819;51.394;12.340;2022-12-18T04:59:29;-5.30;77.00
23301;DHT22;11819;51.394;12.340;2022-12-18T05:01:55;-5.20;77.70
23301;DHT22;11819;51.394;12.340;2022-12-18T05:04:20;-5.20;78.00
23301;DHT22;11819;51.394;12.340;2022-12-18T05:06:46;-5.20;77.90
23301;DHT22;11819;51.394;12.340;2022-12-18T05:09:12;-5.20;78.20
23301;DHT22;11819;51.394;12.340;2022-12-18T05:11:37;-5.10;79.10
23301;DHT22;11819;51.394;12.340;2022-12-18T05:14:03;-5.00;79.90
23301;DHT22;11819;51.394;12.340;2022-12-18T05:16:29;-4.90;80.00
23301;DHT22;11819;51.394;12.340;2022-12-18T05:18:54;-4.80;79.60
23301;DHT22;11819;51.394;12.340;2022-12-18T05:21:20;-4.90;79.00
23301;DHT22;11819;51.394;12.340;2022-12-18T05:23:46;-4.90;78.70
23301;DHT22;11819;51.394;12.340;2022-12-18T05:26:15;-5.00;78.60
23301;DHT22;11819;51.394;12.340;2022-12-18T05:28:42;-4.90;78.80
23301;DHT22;11819;51.394;12.340;2022-12-18T05:31:07;-4.90;78.90
23301;DHT22;11819;51.394;12.340;2022-12-18T05:33:34;-4.90;78.70
23301;DHT22;11819;51.394;12.340;2022-12-18T05:36:02;-4.90;78.40
23301;DHT22;11819;51.394;12.340;2022-12-18T05:38:30;-5.00;78.20
23301;DHT22;11819;51.394;12.340;2022-12-18T05:40:56;-5.00;78.60
23301;DHT22;11819;51.394;12.340;2022-12-18T05:43:23;-5.00;79.00
23301;DHT22;11819;51.394;12.340;2022-12-18T05:45:49;-5.00;79.20
23301;DHT22;11819;51.394;12.340;2022-12-18T05:48:15;-5.00;79.00
23301;DHT22;11819;51.394;12.340;2022-12-18T05:50:43;-5.00;78.60
23301;DHT22;11819;51.394;12.340;2022-12-18T05:53:12;-5.00;78.50
23301;DHT22;11819;51.394;12.340;2022-12-18T05:55:39;-5.00;78.20
23301;DHT22;11819;51.394;12.340;2022-12-18T05:58:07;-5.10;77.90
23301;DHT22;11819;51.394;12.340;2022-12-18T06:00:36;-5.10;77.80
23301;DHT22;11819;51.394;12.340;2022-12-18T06:03:09;-5.10;77.70
23301;DHT22;11819;51.394;12.340;2022-12-18T06:05:36;-5.20;77.50
23301;DHT22;11819;51.394;12.340;2022-12-18T06:08:02;-5.20;77.50
23301;DHT22;11819;51.394;12.340;2022-12-18T06:10:28;-5.20;77.50
23301;DHT22;11819;51.394;12.340;2022-12-18T06:12:54;-5.20;77.50
23301;DHT22;11819;51.394;12.340;2022-12-18T06:15:19;-5.20;77.60
23301;DHT22;11819;51.394;12.340;2022-12-18T06:17:45;-5.20;77.60
23301;DHT22;11819;51.394;12.340;2022-12-18T06:20:10;-5.30;77.70
23301;DHT22;11819;51.394;12.340;2022-12-18T06:22:36;-5.30;77.90
23301;DHT22;11819;51.394;12.340;2022-12-18T06:25:02;-5.20;78.50
23301;DHT22;11819;51.394;12.340;2022-12-18T06:27:27;-5.20;78.50
23301;DHT22;11819;51.394;12.340;2022-12-18T06:29:53;-5.20;78.30
23301;DHT22;11819;51.394;12.340;2022-12-18T06:32:19;-5.20;78.20
23301;DHT22;11819;51.394;12.340;2022-12-18T06:34:44;-5.10;78.10
23301;DHT22;11819;51.394;12.340;2022-12-18T06:37:10;-5.20;77.90
23301;DHT22;11819;51.394;12.340;2022-12-18T06:39:35;-5.20;77.70
23301;DHT22;11819;51.394;12.340;2022-12-18T06:42:01;-5.20;77.40
23301;DHT22;11819;51.394;12.340;2022-12-18T06:44:26;-5.20;77.20
23301;DHT22;11819;51.394;12.340;2022-12-18T06:46:52;-5.30;77.00
23301;DHT22;11819;51.394;12.340;2022-12-18T06:49:18;-5.30;77.00
23301;DHT22;11819;51.394;12.340;2022-12-18T06:51:43;-5.30;77.30
23301;DHT22;11819;51.394;12.340;2022-12-18T06:54:09;-5.30;77.70
23301;DHT22;11819;51.394;12.340;2022-12-18T06:56:35;-5.30;77.80
23301;DHT22;11819;51.394;12.340;2022-12-18T06:59:00;-5.30;77.70
23301;DHT22;11819;51.394;12.340;2022-12-18T07:01:26;-5.30;77.60
23301;DHT22;11819;51.394;12.340;2022-12-18T07:03:53;-5.30;77.50
23301;DHT22;11819;51.394;12.340;2022-12-18T07:06:21;-5.30;77.50
23301;DHT22;11819;51.394;12.340;2022-12-18T07:08:48;-5.30;77.40
23301;DHT22;11819;51.394;12.340;2022-12-18T07:11:14;-5.30;77.30
23301;DHT22;11819;51.394;12.340;2022-12-18T07:13:41;-5.30;77.40
23301;DHT22;11819;51.394;12.340;2022-12-18T07:16:10;-5.40;77.40
23301;DHT22;11819;51.394;12.340;2022-12-18T07:18:36;-5.40;77.40
23301;DHT22;11819;51.394;12.340;2022-12-18T07:21:11;-5.40;77.50
23301;DHT22;11819;51.394;12.340;2022-12-18T07:23:37;-5.40;77.60
23301;DHT22;11819;51.394;12.340;2022-12-18T07:26:11;-5.40;78.00
23301;DHT22;11819;51.394;12.340;2022-12-18T07:28:38;-5.30;78.20
23301;DHT22;11819;51.394;12.340;2022-12-18T07:31:11;-5.30;77.90
23301;DHT22;11819;51.394;12.340;2022-12-18T07:33:37;-5.30;77.60
23301;DHT22;11819;51.394;12.340;2022-12-18T07:36:05;-5.30;77.40
23301;DHT22;11819;51.394;12.340;2022-12-18T07:38:32;-5.30;77.50
23301;DHT22;11819;51.394;12.340;2022-12-18T07:41:07;-5.30;77.70
23301;DHT22;11819;51.394;12.340;2022-12-18T07:43:33;-5.30;77.70
23301;DHT22;11819;51.394;12.340;2022-12-18T07:45:59;-5.20;77.80
23301;DHT22;11819;51.394;12.340;2022-12-18T07:48:25;-5.20;78.00
23301;DHT22;11819;51.394;12.340;2022-12-18T07:50:52;-5.20;78.10
23301;DHT22;11819;51.394;12.340;2022-12-18T07:53:17;-5.10;78.10
23301;DHT22;11819;51.394;12.340;2022-12-18T07:55:43;-5.10;77.80
23301;DHT22;11819;51.394;12.340;2022-12-18T07:58:09;-5.10;78.40
23301;DHT22;11819;51.394;12.340;2022-12-18T08:00:34;-5.10;77.60
23301;DHT22;11819;51.394;12.340;2022-12-18T08:03:00;-5.10;77.60
23301;DHT22;11819;51.394;12.340;2022-12-18T08:05:27;-5.10;77.90
23301;DHT22;11819;51.394;12.340;2022-12-18T08:07:54;-5.10;78.00
23301;DHT22;11819;51.394;12.340;2022-12-18T08:10:20;-5.10;77.90
23301;DHT22;11819;51.394;12.340;2022-12-18T08:12:49;-5.10;77.90
23301;DHT22;11819;51.394;12.340;2022-12-18T08:15:15;-5.10;78.10
23301;DHT22;11819;51.394;12.340;2022-12-18T08:17:40;-5.10;78.30
23301;DHT22;11819;51.394;12.340;2022-12-18T08:20:06;-5.10;78.60
23301;DHT22;11819;51.394;12.340;2022-12-18T08:22:36;-5.10;78.80
23301;DHT22;11819;51.394;12.340;2022-12-18T08:25:03;-5.10;79.00
23301;DHT22;11819;51.394;12.340;2022-12-18T08:27:29;-5.00;79.50
23301;DHT22;11819;51.394;12.340;2022-12-18T08:29:55;-4.90;80.10
23301;DHT22;11819;51.394;12.340;2022-12-18T08:32:21;-4.80;80.40
23301;DHT22;11819;51.394;12.340;2022-12-18T08:34:46;-4.70;80.40
23301;DHT22;11819;51.394;12.340;2022-12-18T08:37:12;-4.60;80.60
23301;DHT22;11819;51.394;12.340;2022-12-18T08:39:37;-4.60;80.50
23301;DHT22;11819;51.394;12.340;2022-12-18T08:42:03;-4.50;80.80
23301;DHT22;11819;51.394;12.340;2022-12-18T08:44:47;-4.50;80.90
23301;DHT22;11819;51.394;12.340;2022-12-18T08:47:13;-4.40;80.90
23301;DHT22;11819;51.394;12.340;2022-12-18T08:49:39;-4.40;80.80
23301;DHT22;11819;51.394;12.340;2022-12-18T08:52:05;-4.40;80.90
23301;DHT22;11819;51.394;12.340;2022-12-18T08:54:30;-4.40;80.90
23301;DHT22;11819;51.394;12.340;2022-12-18T08:56:56;-4.40;81.10
23301;DHT22;11819;51.394;12.340;2022-12-18T08:59:22;-4.30;81.40
23301;DHT22;11819;51.394;12.340;2022-12-18T09:01:49;-4.30;81.40
23301;DHT22;11819;51.394;12.340;2022-12-18T09:04:15;-4.20;81.40
23301;DHT22;11819;51.394;12.340;2022-12-18T09:06:41;-4.20;81.60
23301;DHT22;11819;51.394;12.340;2022-12-18T09:09:06;-4.20;81.70
23301;DHT22;11819;51.394;12.340;2022-12-18T09:11:32;-4.10;81.80
23301;DHT22;11819;51.394;12.340;2022-12-18T09:14:00;-4.10;82.50
23301;DHT22;11819;51.394;12.340;2022-12-18T09:16:27;-4.00;82.00
23301;DHT22;11819;51.394;12.340;2022-12-18T09:18:54;-3.90;82.10
23301;DHT22;11819;51.394;12.340;2022-12-18T09:21:26;-3.80;82.10
23301;DHT22;11819;51.394;12.340;2022-12-18T09:23:53;-3.80;82.20
23301;DHT22;11819;51.394;12.340;2022-12-18T09:26:21;-3.70;82.00
23301;DHT22;11819;51.394;12.340;2022-12-18T09:28:47;-3.60;82.00
23301;DHT22;11819;51.394;12.340;2022-12-18T09:31:13;-3.60;82.00
23301;DHT22;11819;51.394;12.340;2022-12-18T09:33:38;-3.60;82.30
23301;DHT22;11819;51.394;12.340;2022-12-18T09:36:06;-3.60;82.50
23301;DHT22;11819;51.394;12.340;2022-12-18T09:38:33;-3.50;82.70
23301;DHT22;11819;51.394;12.340;2022-12-18T09:41:05;-3.50;82.70
23301;DHT22;11819;51.394;12.340;2022-12-18T09:43:37;-3.40;82.90
23301;DHT22;11819;51.394;12.340;2022-12-18T09:46:11;-3.40;82.80
23301;DHT22;11819;51.394;12.340;2022-12-18T09:48:44;-3.30;83.00
23301;DHT22;11819;51.394;12.340;2022-12-18T09:51:24;-3.20;83.00
23301;DHT22;11819;51.394;12.340;2022-12-18T09:53:55;-3.20;82.80
23301;DHT22;11819;51.394;12.340;2022-12-18T09:56:23;-3.10;82.80
23301;DHT22;11819;51.394;12.340;2022-12-18T09:58:59;-3.00;82.70
23301;DHT22;11819;51.394;12.340;2022-12-18T10:01:26;-3.00;82.20
23301;DHT22;11819;51.394;12.340;2022-12-18T10:03:53;-3.00;82.10
23301;DHT22;11819;51.394;12.340;2022-12-18T10:06:36;-2.90;82.30
23301;DHT22;11819;51.394;12.340;2022-12-18T10:09:20;-2.90;82.50
23301;DHT22;11819;51.394;12.340;2022-12-18T10:25:25;-2.70;82.50
23301;DHT22;11819;51.394;12.340;2022-12-18T10:27:58;-2.60;82.60
23301;DHT22;11819;51.394;12.340;2022-12-18T10:30:27;-2.60;82.70
23301;DHT22;11819;51.394;12.340;2022-12-18T10:32:52;-2.60;82.50
23301;DHT22;11819;51.394;12.340;2022-12-18T10:35:25;-2.60;82.60
23301;DHT22;11819;51.394;12.340;2022-12-18T10:38:24;-2.50;82.70
23301;DHT22;11819;51.394;12.340;2022-12-18T10:40:54;-2.50;82.50
23301;DHT22;11819;51.394;12.340;2022-12-18T10:43:38;-2.50;82.20
23301;DHT22;11819;51.394;12.340;2022-12-18T10:48:55;-2.50;82.40
23301;DHT22;11819;51.394;12.340;2022-12-18T10:51:34;-2.50;82.50
23301;DHT22;11819;51.394;12.340;2022-12-18T10:54:16;-2.40;82.70
23301;DHT22;11819;51.394;12.340;2022-12-18T10:56:42;-2.40;82.70
23301;DHT22;11819;51.394;12.340;2022-12-18T10:59:10;-2.40;82.80
23301;DHT22;11819;51.394;12.340;2022-12-18T11:01:57;-2.30;82.90
23301;DHT22;11819;51.394;12.340;2022-12-18T11:04:29;-2.30;82.90
23301;DHT22;11819;51.394;12.340;2022-12-18T11:07:03;-2.20;83.00
23301;DHT22;11819;51.394;12.340;2022-12-18T11:09:33;-2.20;83.10
23301;DHT22;11819;51.394;12.340;2022-12-18T11:12:02;-2.10;82.90
23301;DHT22;11819;51.394;12.340;2022-12-18T11:14:55;-2.10;82.80
23301;DHT22;11819;51.394;12.340;2022-12-18T11:17:29;-2.00;82.80
23301;DHT22;11819;51.394;12.340;2022-12-18T11:20:01;-2.00;82.50
23301;DHT22;11819;51.394;12.340;2022-12-18T11:22:30;-2.00;82.30
23301;DHT22;11819;51.394;12.340;2022-12-18T11:25:04;-2.00;82.20
23301;DHT22;11819;51.394;12.340;2022-12-18T11:27:31;-1.90;82.20
23301;DHT22;11819;51.394;12.340;2022-12-18T11:30:31;-1.90;82.00
23301;DHT22;11819;51.394;12.340;2022-12-18T11:38:19;-2.00;81.50
23301;DHT22;11819;51.394;12.340;2022-12-18T11:46:19;-2.00;81.70
23301;DHT22;11819;51.394;12.340;2022-12-18T11:48:59;-2.00;81.90
23301;DHT22;11819;51.394;12.340;2022-12-18T11:51:37;-1.90;82.00
23301;DHT22;11819;51.394;12.340;2022-12-18T11:54:13;-1.90;81.60
23301;DHT22;11819;51.394;12.340;2022-12-18T12:10:36;-1.60;81.00
23301;DHT22;11819;51.394;12.340;2022-12-18T12:18:46;-1.50;80.50
23301;DHT22;11819;51.394;12.340;2022-12-18T12:21:39;-1.40;80.30
23301;DHT22;11819;51.394;12.340;2022-12-18T12:24:12;-1.40;80.00
23301;DHT22;11819;51.394;12.340;2022-12-18T12:30:08;-1.30;80.20
23301;DHT22;11819;51.394;12.340;2022-12-18T12:35:39;-1.30;80.10
23301;DHT22;11819;51.394;12.340;2022-12-18T12:38:15;-1.30;80.20
23301;DHT22;11819;51.394;12.340;2022-12-18T12:40:59;-1.30;80.10
23301;DHT22;11819;51.394;12.340;2022-12-18T12:43:41;-1.20;80.00
23301;DHT22;11819;51.394;12.340;2022-12-18T12:46:12;-1.20;79.70
23301;DHT22;11819;51.394;12.340;2022-12-18T12:49:15;-1.10;79.30
23301;DHT22;11819;51.394;12.340;2022-12-18T12:51:38;-1.10;79.00
23301;DHT22;11819;51.394;12.340;2022-12-18T12:54:11;-1.00;78.90
23301;DHT22;11819;51.394;12.340;2022-12-18T12:56:54;-1.00;78.40
23301;DHT22;11819;51.394;12.340;2022-12-18T13:02:25;-1.00;78.10
23301;DHT22;11819;51.394;12.340;2022-12-18T13:07:51;-0.90;77.70
23301;DHT22;11819;51.394;12.340;2022-12-18T13:20:42;-0.80;77.50
23301;DHT22;11819;51.394;12.340;2022-12-18T13:25:50;-0.70;77.40
23301;DHT22;11819;51.394;12.340;2022-12-18T13:31:03;-0.40;77.20
23301;DHT22;11819;51.394;12.340;2022-12-18T13:38:46;0.30;75.40
23301;DHT22;11819;51.394;12.340;2022-12-18T13:41:25;0.30;74.50
23301;DHT22;11819;51.394;12.340;2022-12-18T13:43:53;0.30;73.90
23301;DHT22;11819;51.394;12.340;2022-12-18T13:49:17;0.00;73.50
23301;DHT22;11819;51.394;12.340;2022-12-18T13:51:51;-0.10;73.70
23301;DHT22;11819;51.394;12.340;2022-12-18T13:54:30;-0.30;74.10
23301;DHT22;11819;51.394;12.340;2022-12-18T13:56:58;-0.40;74.40
23301;DHT22;11819;51.394;12.340;2022-12-18T13:59:35;-0.50;74.70
23301;DHT22;11819;51.394;12.340;2022-12-18T14:02:16;-0.60;75.10
23301;DHT22;11819;51.394;12.340;2022-12-18T14:04:45;-0.70;75.60
23301;DHT22;11819;51.394;12.340;2022-12-18T14:07:14;-0.90;76.20
23301;DHT22;11819;51.394;12.340;2022-12-18T14:09:49;-1.00;76.70
23301;DHT22;11819;51.394;12.340;2022-12-18T14:15:03;-1.10;77.70
23301;DHT22;11819;51.394;12.340;2022-12-18T14:17:31;-1.20;78.20
23301;DHT22;11819;51.394;12.340;2022-12-18T14:19:57;-1.20;78.40
23301;DHT22;11819;51.394;12.340;2022-12-18T14:22:25;-1.30;78.60
23301;DHT22;11819;51.394;12.340;2022-12-18T14:27:43;-1.40;79.00
23301;DHT22;11819;51.394;12.340;2022-12-18T14:33:19;-1.50;79.30
23301;DHT22;11819;51.394;12.340;2022-12-18T14:36:05;-1.60;79.50
23301;DHT22;11819;51.394;12.340;2022-12-18T14:41:20;-1.70;79.80
23301;DHT22;11819;51.394;12.340;2022-12-18T14:43:47;-1.80;79.90
23301;DHT22;11819;51.394;12.340;2022-12-18T14:46:29;-1.80;80.00
23301;DHT22;11819;51.394;12.340;2022-12-18T14:48:56;-1.90;80.00
23301;DHT22;11819;51.394;12.340;2022-12-18T14:51:23;-1.90;80.10
23301;DHT22;11819;51.394;12.340;2022-12-18T14:54:00;-2.00;80.20
23301;DHT22;11819;51.394;12.340;2022-12-18T14:59:02;-2.10;80.20
23301;DHT22;11819;51.394;12.340;2022-12-18T15:01:44;-2.10;80.20
23301;DHT22;11819;51.394;12.340;2022-12-18T15:04:35;-2.20;80.10
23301;DHT22;11819;51.394;12.340;2022-12-18T15:09:31;-2.20;80.30
23301;DHT22;11819;51.394;12.340;2022-12-18T15:11:58;-2.30;80.10
23301;DHT22;11819;51.394;12.340;2022-12-18T15:14:35;-2.30;80.00
23301;DHT22;11819;51.394;12.340;2022-12-18T15:17:12;-2.40;80.00
23301;DHT22;11819;51.394;12.340;2022-12-18T15:19:41;-2.40;80.00
23301;DHT22;11819;51.394;12.340;2022-12-18T15:22:34;-2.50;80.00
23301;DHT22;11819;51.394;12.340;2022-12-18T15:25:00;-2.50;80.20
23301;DHT22;11819;51.394;12.340;2022-12-18T15:27:35;-2.50;80.30
23301;DHT22;11819;51.394;12.340;2022-12-18T15:30:17;-2.50;80.30
23301;DHT22;11819;51.394;12.340;2022-12-18T15:32:43;-2.50;80.40
23301;DHT22;11819;51.394;12.340;2022-12-18T15:35:23;-2.50;80.50
23301;DHT22;11819;51.394;12.340;2022-12-18T15:37:50;-2.50;80.60
23301;DHT22;11819;51.394;12.340;2022-12-18T15:40:19;-2.60;80.60
23301;DHT22;11819;51.394;12.340;2022-12-18T15:42:45;-2.60;80.60
23301;DHT22;11819;51.394;12.340;2022-12-18T15:45:30;-2.60;80.60
23301;DHT22;11819;51.394;12.340;2022-12-18T15:47:56;-2.60;80.70
23301;DHT22;11819;51.394;12.340;2022-12-18T15:50:22;-2.70;80.80
23301;DHT22;11819;51.394;12.340;2022-12-18T15:52:49;-2.70;80.90
23301;DHT22;11819;51.394;12.340;2022-12-18T15:55:21;-2.70;81.00
23301;DHT22;11819;51.394;12.340;2022-12-18T15:58:06;-2.70;81.20
23301;DHT22;11819;51.394;12.340;2022-12-18T16:00:38;-2.60;81.40
23301;DHT22;11819;51.394;12.340;2022-12-18T16:03:04;-2.60;81.30
23301;DHT22;11819;51.394;12.340;2022-12-18T16:05:31;-2.60;81.10
23301;DHT22;11819;51.394;12.340;2022-12-18T16:07:57;-2.60;81.00
23301;DHT22;11819;51.394;12.340;2022-12-18T16:10:24;-2.60;80.90
23301;DHT22;11819;51.394;12.340;2022-12-18T16:12:50;-2.70;80.90
23301;DHT22;11819;51.394;12.340;2022-12-18T16:15:16;-2.70;81.10
23301;DHT22;11819;51.394;12.340;2022-12-18T16:17:43;-2.70;81.00
23301;DHT22;11819;51.394;12.340;2022-12-18T16:20:13;-2.70;80.70
23301;DHT22;11819;51.394;12.340;2022-12-18T16:22:41;-2.70;80.70
23301;DHT22;11819;51.394;12.340;2022-12-18T16:25:30;-2.80;80.60
23301;DHT22;11819;51.394;12.340;2022-12-18T16:27:56;-2.80;80.70
23301;DHT22;11819;51.394;12.340;2022-12-18T16:30:25;-2.80;80.80
23301;DHT22;11819;51.394;12.340;2022-12-18T16:32:58;-2.80;80.70
23301;DHT22;11819;51.394;12.340;2022-12-18T16:35:25;-2.80;80.80
23301;DHT22;11819;51.394;12.340;2022-12-18T16:37:51;-2.90;80.80
23301;DHT22;11819;51.394;12.340;2022-12-18T16:40:18;-2.80;80.90
23301;DHT22;11819;51.394;12.340;2022-12-18T16:42:45;-2.90;80.80
23301;DHT22;11819;51.394;12.340;2022-12-18T16:45:14;-2.90;80.80
23301;DHT22;11819;51.394;12.340;2022-12-18T16:47:40;-2.80;81.00
23301;DHT22;11819;51.394;12.340;2022-12-18T16:50:06;-2.80;81.20
23301;DHT22;11819;51.394;12.340;2022-12-18T16:52:33;-2.80;81.10
23301;DHT22;11819;51.394;12.340;2022-12-18T16:54:58;-2.70;81.20
23301;DHT22;11819;51.394;12.340;2022-12-18T16:57:24;-2.70;81.00
23301;DHT22;11819;51.394;12.340;2022-12-18T16:59:50;-2.70;80.90
23301;DHT22;11819;51.394;12.340;2022-12-18T17:04:42;-2.60;81.00
23301;DHT22;11819;51.394;12.340;2022-12-18T17:07:08;-2.50;80.90
23301;DHT22;11819;51.394;12.340;2022-12-18T17:09:35;-2.50;80.70
23301;DHT22;11819;51.394;12.340;2022-12-18T17:12:00;-2.50;80.50
23301;DHT22;11819;51.394;12.340;2022-12-18T17:14:26;-2.40;80.70
23301;DHT22;11819;51.394;12.340;2022-12-18T17:16:53;-2.40;80.60
23301;DHT22;11819;51.394;12.340;2022-12-18T17:19:19;-2.30;80.60
23301;DHT22;11819;51.394;12.340;2022-12-18T17:21:48;-2.30;80.30
23301;DHT22;11819;51.394;12.340;2022-12-18T17:24:14;-2.30;80.20
23301;DHT22;11819;51.394;12.340;2022-12-18T17:26:40;-2.20;80.20
23301;DHT22;11819;51.394;12.340;2022-12-18T17:29:06;-2.20;80.10
23301;DHT22;11819;51.394;12.340;2022-12-18T17:31:33;-2.10;79.90
23301;DHT22;11819;51.394;12.340;2022-12-18T17:34:00;-2.10;79.70